createdAt,value
2023-05-09T00:01:47.738Z,11.98
2023-05-09T00:04:16.203Z,11.97
2023-05-09T00:06:43.449Z,12.30
2023-05-09T00:09:10.605Z,12.33
2023-05-09T00:11:37.804Z,12.09
2023-05-09T00:14:05.100Z,12.37
2023-05-09T00:16:33.111Z,11.90
2023-05-09T00:19:00.430Z,11.87
2023-05-09T00:21:28.250Z,12.19
2023-05-09T00:23:55.633Z,12.34
2023-05-09T00:26:23.376Z,11.90
2023-05-09T00:28:50.642Z,11.85
2023-05-09T00:31:17.811Z,12.13
2023-05-09T00:33:44.989Z,11.73
2023-05-09T00:36:12.294Z,11.88
2023-05-09T00:38:39.507Z,12.03
2023-05-09T00:41:06.730Z,11.68
2023-05-09T00:43:33.868Z,11.53
2023-05-09T00:46:01.221Z,11.75
2023-05-09T00:48:28.570Z,11.61
2023-05-09T00:50:56.312Z,11.64
2023-05-09T00:53:25.353Z,11.71
2023-05-09T00:55:55.849Z,11.48
2023-05-09T00:58:23.729Z,11.56
2023-05-09T01:00:50.896Z,11.40
2023-05-09T01:03:18.281Z,11.25
2023-05-09T01:05:54.399Z,11.37
2023-05-09T01:08:59.571Z,11.14
2023-05-09T01:11:39.146Z,11.16
2023-05-09T01:14:27.083Z,11.49
2023-05-09T01:17:12.332Z,11.49
2023-05-09T01:19:56.656Z,11.31
2023-05-09T01:22:32.014Z,11.53
2023-05-09T01:25:45.657Z,11.16
2023-05-09T01:28:26.158Z,11.69
2023-05-09T01:30:55.085Z,11.49
2023-05-09T01:33:26.407Z,11.00
2023-05-09T01:36:01.711Z,10.95
2023-05-09T01:38:32.739Z,11.19
2023-05-09T01:41:05.243Z,10.67
2023-05-09T01:43:33.644Z,10.69
2023-05-09T01:46:03.882Z,10.80
2023-05-09T01:48:31.963Z,10.93
2023-05-09T01:51:01.290Z,10.69
2023-05-09T01:53:30.975Z,10.59
2023-05-09T01:56:00.404Z,10.88
2023-05-09T01:58:28.805Z,10.64
2023-05-09T02:00:56.576Z,11.12
2023-05-09T02:03:25.654Z,10.61
2023-05-09T02:05:56.692Z,10.12
2023-05-09T02:08:24.077Z,10.38
2023-05-09T02:10:51.356Z,10.54
2023-05-09T02:13:18.878Z,10.66
2023-05-09T02:15:47.649Z,10.18
2023-05-09T02:18:14.924Z,10.20
2023-05-09T02:20:42.134Z,10.39
2023-05-09T02:23:09.307Z,10.27
2023-05-09T02:25:38.466Z,10.30
2023-05-09T02:28:07.231Z,10.29
2023-05-09T02:30:41.983Z,10.38
2023-05-09T02:33:13.588Z,10.24
2023-05-09T02:35:45.087Z,10.29
2023-05-09T02:38:14.299Z,10.45
2023-05-09T02:40:44.250Z,10.65
2023-05-09T02:43:11.504Z,10.13
2023-05-09T02:45:38.680Z,10.30
2023-05-09T02:48:08.738Z,10.12
2023-05-09T02:50:38.327Z,10.24
2023-05-09T02:53:06.159Z,10.35
2023-05-09T02:55:33.365Z,10.07
2023-05-09T02:58:12.803Z,9.93
2023-05-09T03:00:42.744Z,10.21
2023-05-09T03:03:10.470Z,9.98
2023-05-09T03:05:37.735Z,10.17
2023-05-09T03:08:05.280Z,9.93
2023-05-09T03:10:32.425Z,10.12
2023-05-09T03:12:59.852Z,9.57
2023-05-09T03:15:27.232Z,10.03
2023-05-09T03:17:54.431Z,9.94
2023-05-09T03:20:21.600Z,10.13
2023-05-09T03:22:48.758Z,10.21
2023-05-09T03:25:16.845Z,10.02
2023-05-09T03:27:44.381Z,10.30
2023-05-09T03:30:12.505Z,9.77
2023-05-09T03:32:39.925Z,9.59
2023-05-09T03:35:07.746Z,10.15
2023-05-09T03:37:34.885Z,9.61
2023-05-09T03:40:02.106Z,10.15
2023-05-09T03:42:29.290Z,9.71
2023-05-09T03:44:56.465Z,10.26
2023-05-09T03:47:23.833Z,10.20
2023-05-09T03:49:51.040Z,10.11
2023-05-09T03:52:18.203Z,9.94
2023-05-09T03:54:45.456Z,9.92
2023-05-09T03:57:12.591Z,9.82
2023-05-09T03:59:39.717Z,9.82
2023-05-09T04:02:07.026Z,9.97
2023-05-09T04:04:34.349Z,9.69
2023-05-09T04:07:01.618Z,10.28
2023-05-09T04:09:28.853Z,9.74
2023-05-09T04:11:56.010Z,9.97
2023-05-09T04:14:23.143Z,10.09
2023-05-09T04:16:50.306Z,10.10
2023-05-09T04:19:17.477Z,9.91
2023-05-09T04:21:44.614Z,9.55
2023-05-09T04:24:11.844Z,10.22
2023-05-09T04:26:39.341Z,10.26
2023-05-09T04:29:06.578Z,10.34
2023-05-09T04:31:33.942Z,9.95
2023-05-09T04:34:01.371Z,9.97
2023-05-09T04:36:28.905Z,10.19
2023-05-09T04:38:56.134Z,10.03
2023-05-09T04:41:23.979Z,10.10
2023-05-09T04:43:52.308Z,10.14
2023-05-09T04:46:19.597Z,10.18
2023-05-09T04:48:46.776Z,10.30
2023-05-09T04:51:13.920Z,10.17
2023-05-09T04:53:41.090Z,10.43
2023-05-09T04:56:08.238Z,10.58
2023-05-09T04:58:38.307Z,10.45
2023-05-09T05:01:06.205Z,10.83
2023-05-09T05:03:33.633Z,10.43
2023-05-09T05:06:00.804Z,11.15
2023-05-09T05:08:27.989Z,11.06
2023-05-09T05:10:55.223Z,10.86
2023-05-09T05:13:22.509Z,10.67
2023-05-09T05:15:50.189Z,11.10
2023-05-09T05:18:17.447Z,11.01
2023-05-09T05:20:44.627Z,11.38
2023-05-09T05:23:12.203Z,11.07
2023-05-09T05:25:39.376Z,11.30
2023-05-09T05:28:06.669Z,11.22
2023-05-09T05:30:34.555Z,11.49
2023-05-09T05:33:01.922Z,11.38
2023-05-09T05:35:29.320Z,11.51
2023-05-09T05:37:56.649Z,11.57
2023-05-09T05:40:23.820Z,11.47
2023-05-09T05:42:50.977Z,11.59
2023-05-09T05:45:18.168Z,11.72
2023-05-09T05:47:45.606Z,11.70
2023-05-09T05:50:13.246Z,11.88
2023-05-09T05:52:41.602Z,12.10
2023-05-09T05:55:09.308Z,11.83
2023-05-09T05:57:37.696Z,11.88
2023-05-09T06:00:10.584Z,12.17
2023-05-09T06:02:38.129Z,12.23
2023-05-09T06:05:07.074Z,12.56
2023-05-09T06:07:34.243Z,12.58
2023-05-09T06:10:01.407Z,12.87
2023-05-09T06:12:28.540Z,12.84
2023-05-09T06:14:55.807Z,13.15
2023-05-09T06:17:23.047Z,13.20
2023-05-09T06:19:50.180Z,13.08
2023-05-09T06:22:17.329Z,13.42
2023-05-09T06:24:44.466Z,13.50
2023-05-09T06:27:11.659Z,13.33
2023-05-09T06:29:38.826Z,13.43
2023-05-09T06:32:06.014Z,13.40
2023-05-09T06:34:33.221Z,13.53
2023-05-09T06:37:00.402Z,13.64
2023-05-09T06:39:27.647Z,13.57
2023-05-09T06:41:54.802Z,13.69
2023-05-09T06:44:22.063Z,13.74
2023-05-09T06:46:49.331Z,13.68
2023-05-09T06:49:16.472Z,13.67
2023-05-09T06:51:43.639Z,13.99
2023-05-09T06:54:10.812Z,14.01
2023-05-09T06:56:38.092Z,14.00
2023-05-09T06:59:05.326Z,14.01
2023-05-09T07:01:32.597Z,14.04
2023-05-09T07:04:00.049Z,14.37
2023-05-09T07:06:27.287Z,14.29
2023-05-09T07:08:54.504Z,14.61
2023-05-09T07:11:22.371Z,14.54
2023-05-09T07:13:49.505Z,14.70
2023-05-09T07:16:18.375Z,14.48
2023-05-09T07:18:45.624Z,14.75
2023-05-09T07:21:12.813Z,14.94
2023-05-09T07:23:40.025Z,14.78
2023-05-09T07:26:07.212Z,15.07
2023-05-09T07:28:34.391Z,14.95
2023-05-09T07:31:01.564Z,15.07
2023-05-09T07:33:28.760Z,15.39
2023-05-09T07:35:57.878Z,15.87
2023-05-09T07:38:24.984Z,16.85
2023-05-09T07:40:53.228Z,18.45
2023-05-09T07:43:20.474Z,19.02
2023-05-09T07:45:47.661Z,19.40
2023-05-09T07:48:14.905Z,19.27
2023-05-09T07:50:42.062Z,20.41
2023-05-09T07:53:09.210Z,20.73
2023-05-09T07:55:36.443Z,20.38
2023-05-09T07:58:03.792Z,20.65
2023-05-09T08:00:32.156Z,21.15
2023-05-09T08:02:59.479Z,22.16
2023-05-09T08:05:27.048Z,22.27
2023-05-09T08:07:54.197Z,22.80
2023-05-09T08:10:22.930Z,21.88
2023-05-09T08:12:50.240Z,22.24
2023-05-09T08:15:17.588Z,22.01
2023-05-09T08:17:44.854Z,21.81
2023-05-09T08:20:13.196Z,22.29
2023-05-09T08:22:40.755Z,22.71
2023-05-09T08:25:08.818Z,23.51
2023-05-09T08:27:35.980Z,23.94
2023-05-09T08:30:03.257Z,23.23
2023-05-09T08:32:30.673Z,23.52
2023-05-09T08:34:57.882Z,23.56
2023-05-09T08:37:26.030Z,24.32
2023-05-09T08:39:53.167Z,23.71
2023-05-09T08:42:25.527Z,22.98
2023-05-09T08:44:53.557Z,23.56
2023-05-09T08:47:22.558Z,23.06
2023-05-09T08:49:51.519Z,22.67
2023-05-09T08:52:19.076Z,24.16
2023-05-09T08:54:46.657Z,23.38
2023-05-09T08:57:15.628Z,24.21
2023-05-09T08:59:43.492Z,23.59
2023-05-09T09:02:14.361Z,25.04
2023-05-09T09:04:41.687Z,24.62
2023-05-09T09:07:09.944Z,25.20
2023-05-09T09:09:39.176Z,24.79
2023-05-09T09:12:09.695Z,24.03
2023-05-09T09:14:42.794Z,24.50
2023-05-09T09:17:14.448Z,24.36
2023-05-09T09:19:44.790Z,24.85
2023-05-09T09:22:16.019Z,23.45
2023-05-09T09:24:43.144Z,24.52
2023-05-09T09:27:10.344Z,23.35
2023-05-09T09:29:38.739Z,23.64
2023-05-09T09:32:06.849Z,22.97
2023-05-09T09:34:34.110Z,25.41
2023-05-09T09:37:01.318Z,24.08
2023-05-09T09:39:28.465Z,25.68
2023-05-09T09:41:55.773Z,25.28
2023-05-09T09:44:23.386Z,24.67
2023-05-09T09:46:55.906Z,24.46
2023-05-09T09:49:26.216Z,25.10
2023-05-09T09:51:58.384Z,24.83
2023-05-09T09:54:28.972Z,24.90
2023-05-09T09:56:56.882Z,25.33
2023-05-09T09:59:26.668Z,24.68
2023-05-09T10:02:04.906Z,24.18
2023-05-09T10:04:37.077Z,23.69
2023-05-09T10:07:07.203Z,24.21
2023-05-09T10:09:37.832Z,24.61
2023-05-09T10:12:08.412Z,24.78
2023-05-09T10:14:38.176Z,23.80
2023-05-09T10:17:05.835Z,25.25
2023-05-09T10:19:35.763Z,24.10
2023-05-09T10:22:08.128Z,22.73
2023-05-09T10:24:40.855Z,23.50
2023-05-09T10:27:12.743Z,23.94
2023-05-09T10:29:51.414Z,24.02
2023-05-09T10:32:52.003Z,23.54
2023-05-09T10:35:26.182Z,23.93
2023-05-09T10:37:59.449Z,23.84
2023-05-09T10:40:28.534Z,24.02
2023-05-09T10:42:55.715Z,23.69
2023-05-09T10:45:23.429Z,23.89
2023-05-09T10:47:53.230Z,23.67
2023-05-09T10:50:21.444Z,23.39
2023-05-09T10:53:11.429Z,23.40
2023-05-09T10:55:56.362Z,23.00
2023-05-09T10:58:33.649Z,23.95
2023-05-09T11:01:03.663Z,23.58
2023-05-09T11:03:57.222Z,23.64
2023-05-09T11:06:51.036Z,23.37
2023-05-09T11:09:33.484Z,23.52
2023-05-09T11:12:12.234Z,23.30
2023-05-09T11:14:45.580Z,23.15
2023-05-09T11:17:27.455Z,23.39
2023-05-09T11:20:01.041Z,22.97
2023-05-09T11:22:32.570Z,23.42
2023-05-09T11:25:05.053Z,23.07
2023-05-09T11:27:43.217Z,23.65
2023-05-09T11:30:17.292Z,23.72
2023-05-09T11:32:55.425Z,23.51
2023-05-09T11:35:23.655Z,22.81
2023-05-09T11:38:00.320Z,23.45
2023-05-09T11:40:29.829Z,23.06
2023-05-09T11:42:59.094Z,23.66
2023-05-09T11:45:32.667Z,23.49
2023-05-09T11:48:04.012Z,24.04
2023-05-09T11:50:31.272Z,23.42
2023-05-09T11:52:58.500Z,22.97
2023-05-09T11:55:28.043Z,22.52
2023-05-09T11:57:55.922Z,23.23
2023-05-09T12:00:25.587Z,22.73
2023-05-09T12:02:53.750Z,23.28
2023-05-09T12:05:23.167Z,22.45
2023-05-09T12:07:52.318Z,22.74
2023-05-09T12:10:25.382Z,23.07
2023-05-09T12:12:55.612Z,22.41
2023-05-09T12:15:23.751Z,22.93
2023-05-09T12:18:06.829Z,23.27
2023-05-09T12:20:50.334Z,22.74
2023-05-09T12:23:19.439Z,23.09
2023-05-09T12:25:57.297Z,22.81
2023-05-09T12:28:26.493Z,23.30
2023-05-09T12:30:54.733Z,23.38
2023-05-09T12:33:22.418Z,23.29
2023-05-09T12:36:04.102Z,23.46
2023-05-09T12:38:32.146Z,22.99
2023-05-09T12:41:29.558Z,22.84
2023-05-09T12:43:57.853Z,23.33
2023-05-09T12:46:25.575Z,22.84
2023-05-09T12:48:52.849Z,23.13
2023-05-09T12:51:22.192Z,23.16
2023-05-09T12:53:49.717Z,23.38
2023-05-09T12:56:20.167Z,23.20
2023-05-09T12:58:55.371Z,23.05
2023-05-09T13:01:28.410Z,22.99
2023-05-09T13:04:04.458Z,23.07
2023-05-09T13:06:32.348Z,23.15
2023-05-09T13:09:02.804Z,22.63
2023-05-09T13:11:30.196Z,23.02
2023-05-09T13:13:58.349Z,22.81
2023-05-09T13:16:25.746Z,23.24
2023-05-09T13:18:52.938Z,22.72
2023-05-09T13:21:20.226Z,22.75
2023-05-09T13:23:49.888Z,22.37
2023-05-09T13:26:17.149Z,22.64
2023-05-09T13:28:44.311Z,22.69
2023-05-09T13:31:11.498Z,22.98
2023-05-09T13:33:38.916Z,22.77
2023-05-09T13:36:07.074Z,22.67
2023-05-09T13:38:38.667Z,22.76
2023-05-09T13:41:07.385Z,22.51
2023-05-09T13:43:35.803Z,22.61
2023-05-09T13:46:03.486Z,22.50
2023-05-09T13:48:30.706Z,22.57
2023-05-09T13:50:59.784Z,22.48
2023-05-09T13:53:27.017Z,22.64
2023-05-09T13:55:54.160Z,22.91
2023-05-09T13:58:21.360Z,22.62
2023-05-09T14:00:48.656Z,22.53
2023-05-09T14:03:15.837Z,22.90
2023-05-09T14:05:43.032Z,22.35
2023-05-09T14:08:11.055Z,22.28
2023-05-09T14:10:38.235Z,22.81
2023-05-09T14:13:05.482Z,22.98
2023-05-09T14:15:32.701Z,22.64
2023-05-09T14:17:59.900Z,22.35
2023-05-09T14:20:27.519Z,22.37
2023-05-09T14:22:55.170Z,22.54
2023-05-09T14:25:22.582Z,22.67
2023-05-09T14:27:49.755Z,22.35
2023-05-09T14:30:17.151Z,22.49
2023-05-09T14:32:44.534Z,22.43
2023-05-09T14:35:11.805Z,22.28
2023-05-09T14:37:39.564Z,21.99
2023-05-09T14:40:08.566Z,21.85
2023-05-09T14:42:36.845Z,22.10
2023-05-09T14:45:06.837Z,21.84
2023-05-09T14:47:34.362Z,21.88
2023-05-09T14:50:01.624Z,22.02
2023-05-09T14:52:29.131Z,22.13
2023-05-09T14:54:56.329Z,22.22
2023-05-09T14:57:23.550Z,22.33
2023-05-09T14:59:50.698Z,22.03
2023-05-09T15:02:17.878Z,21.79
2023-05-09T15:04:45.022Z,22.12
2023-05-09T15:07:12.507Z,21.91
2023-05-09T15:09:39.643Z,21.84
2023-05-09T15:12:06.911Z,22.17
2023-05-09T15:14:34.081Z,21.59
2023-05-09T15:17:04.126Z,21.66
2023-05-09T15:19:32.421Z,21.45
2023-05-09T15:22:00.432Z,21.49
2023-05-09T15:24:27.686Z,21.64
2023-05-09T15:26:55.050Z,21.63
2023-05-09T15:29:22.191Z,21.64
2023-05-09T15:31:49.434Z,21.61
2023-05-09T15:34:16.997Z,21.45
2023-05-09T15:36:44.185Z,21.38
2023-05-09T15:39:11.344Z,21.80
2023-05-09T15:41:38.460Z,21.56
2023-05-09T15:44:05.609Z,21.35
2023-05-09T15:46:33.560Z,21.39
2023-05-09T15:49:00.704Z,21.11
2023-05-09T15:51:29.939Z,21.40
2023-05-09T15:53:57.090Z,21.33
2023-05-09T15:56:24.244Z,21.46
2023-05-09T15:58:51.481Z,21.35
2023-05-09T16:01:19.022Z,21.16
2023-05-09T16:03:46.460Z,21.16
2023-05-09T16:06:14.075Z,21.46
2023-05-09T16:08:41.197Z,21.05
2023-05-09T16:11:08.554Z,21.21
2023-05-09T16:13:36.255Z,21.19
2023-05-09T16:16:04.060Z,21.00
2023-05-09T16:18:31.479Z,21.00
2023-05-09T16:20:59.591Z,20.84
2023-05-09T16:23:26.810Z,20.90
2023-05-09T16:25:54.071Z,20.89
2023-05-09T16:28:23.426Z,20.59
2023-05-09T16:30:54.052Z,20.58
2023-05-09T16:33:21.245Z,20.78
2023-05-09T16:35:48.442Z,20.39
2023-05-09T16:38:15.582Z,20.66
2023-05-09T16:40:42.839Z,20.80
2023-05-09T16:43:10.027Z,20.80
2023-05-09T16:45:37.253Z,20.70
2023-05-09T16:48:04.868Z,20.90
2023-05-09T16:50:32.095Z,20.98
2023-05-09T16:52:59.307Z,20.69
2023-05-09T16:55:26.682Z,20.61
2023-05-09T16:57:53.824Z,20.86
2023-05-09T17:00:22.074Z,20.59
2023-05-09T17:02:49.242Z,20.51
2023-05-09T17:05:16.408Z,20.71
2023-05-09T17:07:43.528Z,20.43
2023-05-09T17:10:11.530Z,20.55
2023-05-09T17:12:39.432Z,20.39
2023-05-09T17:15:08.601Z,20.29
2023-05-09T17:17:36.116Z,20.08
2023-05-09T17:20:04.477Z,19.99
2023-05-09T17:22:32.002Z,20.03
2023-05-09T17:24:59.134Z,19.84
2023-05-09T17:27:27.072Z,19.63
2023-05-09T17:29:54.230Z,19.95
2023-05-09T17:32:21.480Z,19.85
2023-05-09T17:34:48.648Z,19.88
2023-05-09T17:37:16.966Z,19.92
2023-05-09T17:39:44.290Z,19.83
2023-05-09T17:42:12.441Z,19.60
2023-05-09T17:44:40.207Z,19.61
2023-05-09T17:47:08.315Z,19.60
2023-05-09T17:49:36.378Z,19.72
2023-05-09T17:52:03.556Z,19.69
2023-05-09T17:54:30.719Z,19.47
2023-05-09T17:57:01.244Z,19.51
2023-05-09T17:59:28.722Z,19.45
2023-05-09T18:01:56.000Z,19.52
2023-05-09T18:04:23.295Z,19.48
2023-05-09T18:06:50.625Z,19.50
2023-05-09T18:09:17.836Z,19.28
2023-05-09T18:11:44.990Z,19.44
2023-05-09T18:14:12.888Z,19.41
2023-05-09T18:16:40.144Z,19.34
2023-05-09T18:19:07.294Z,19.13
2023-05-09T18:21:34.622Z,19.14
2023-05-09T18:24:01.877Z,19.26
2023-05-09T18:26:29.068Z,19.21
2023-05-09T18:28:56.274Z,19.35
2023-05-09T18:31:23.801Z,19.03
2023-05-09T18:33:51.162Z,19.01
2023-05-09T18:36:18.598Z,19.09
2023-05-09T18:38:46.656Z,19.12
2023-05-09T18:41:15.602Z,18.80
2023-05-09T18:43:46.456Z,18.83
2023-05-09T18:46:17.529Z,18.69
2023-05-09T18:48:46.434Z,18.87
2023-05-09T18:51:13.607Z,18.59
2023-05-09T18:53:41.282Z,18.83
2023-05-09T18:56:09.141Z,18.74
2023-05-09T18:58:36.849Z,18.56
2023-05-09T19:01:04.867Z,18.21
2023-05-09T19:03:32.035Z,18.36
2023-05-09T19:05:59.811Z,18.40
2023-05-09T19:08:27.275Z,18.18
2023-05-09T19:10:54.550Z,18.38
2023-05-09T19:13:21.878Z,18.16
2023-05-09T19:15:49.163Z,18.23
2023-05-09T19:18:16.660Z,18.29
2023-05-09T19:20:43.864Z,18.22
2023-05-09T19:23:12.016Z,18.03
2023-05-09T19:25:39.234Z,18.23
2023-05-09T19:28:06.444Z,17.89
2023-05-09T19:30:34.044Z,17.95
2023-05-09T19:33:01.394Z,17.93
2023-05-09T19:35:28.582Z,17.58
2023-05-09T19:37:55.731Z,17.71
2023-05-09T19:40:22.889Z,17.89
2023-05-09T19:42:50.053Z,17.74
2023-05-09T19:45:17.339Z,17.71
2023-05-09T19:47:44.511Z,17.92
2023-05-09T19:50:11.778Z,17.49
2023-05-09T19:52:38.904Z,17.57
2023-05-09T19:55:07.033Z,17.49
2023-05-09T19:57:34.274Z,17.17
2023-05-09T20:00:01.589Z,17.23
2023-05-09T20:02:29.203Z,17.53
2023-05-09T20:04:56.411Z,17.54
2023-05-09T20:07:23.572Z,17.50
2023-05-09T20:09:50.776Z,17.37
2023-05-09T20:12:18.269Z,17.41
2023-05-09T20:14:45.464Z,17.24
2023-05-09T20:17:12.748Z,17.10
2023-05-09T20:19:40.075Z,16.98
2023-05-09T20:22:07.340Z,17.24
2023-05-09T20:24:34.502Z,17.16
2023-05-09T20:27:03.040Z,17.17
2023-05-09T20:29:30.281Z,17.05
2023-05-09T20:31:57.492Z,16.94
2023-05-09T20:34:24.807Z,17.02
2023-05-09T20:36:55.057Z,17.11
2023-05-09T20:39:23.179Z,16.97
2023-05-09T20:41:52.162Z,17.16
2023-05-09T20:44:19.400Z,16.89
2023-05-09T20:46:46.650Z,16.98
2023-05-09T20:49:14.635Z,16.80
2023-05-09T20:51:41.893Z,16.96
2023-05-09T20:54:09.086Z,16.81
2023-05-09T20:56:36.417Z,16.86
2023-05-09T20:59:04.195Z,17.02
2023-05-09T21:01:35.373Z,16.74
2023-05-09T21:04:08.156Z,16.90
2023-05-09T21:06:38.109Z,16.47
2023-05-09T21:09:09.294Z,16.63
2023-05-09T21:11:38.259Z,16.42
2023-05-09T21:14:06.172Z,16.54
2023-05-09T21:16:33.436Z,16.53
2023-05-09T21:19:02.625Z,16.70
2023-05-09T21:21:31.510Z,16.48
2023-05-09T21:24:04.152Z,16.53
2023-05-09T21:26:32.443Z,16.48
2023-05-09T21:28:59.618Z,16.19
2023-05-09T21:31:26.880Z,16.19
2023-05-09T21:33:54.078Z,16.58
2023-05-09T21:36:21.251Z,16.02
2023-05-09T21:38:48.390Z,16.41
2023-05-09T21:41:15.827Z,16.35
2023-05-09T21:43:43.060Z,16.46
2023-05-09T21:46:10.538Z,16.38
2023-05-09T21:48:37.810Z,16.06
2023-05-09T21:51:07.509Z,16.26
2023-05-09T21:53:34.666Z,16.39
2023-05-09T21:56:02.177Z,16.18
2023-05-09T21:58:29.307Z,16.49
2023-05-09T22:00:56.436Z,16.17
2023-05-09T22:03:23.950Z,15.91
2023-05-09T22:05:51.171Z,16.12
2023-05-09T22:08:18.315Z,15.79
2023-05-09T22:10:45.476Z,16.25
2023-05-09T22:13:12.679Z,16.22
2023-05-09T22:15:39.919Z,16.29
2023-05-09T22:18:07.085Z,15.78
2023-05-09T22:20:34.409Z,16.12
2023-05-09T22:23:01.700Z,16.18
2023-05-09T22:25:28.987Z,16.22
2023-05-09T22:27:56.709Z,16.35
2023-05-09T22:30:24.311Z,16.14
2023-05-09T22:32:51.647Z,16.33
2023-05-09T22:35:18.850Z,16.11
2023-05-09T22:37:46.029Z,16.11
2023-05-09T22:40:13.859Z,16.11
2023-05-09T22:42:41.213Z,16.17
2023-05-09T22:45:09.060Z,15.93
2023-05-09T22:47:36.611Z,15.85
2023-05-09T22:50:04.124Z,15.59
2023-05-09T22:52:31.597Z,15.58
2023-05-09T22:54:58.774Z,15.82
2023-05-09T22:57:26.103Z,15.87
2023-05-09T22:59:53.798Z,15.97
2023-05-09T23:02:21.230Z,15.83
2023-05-09T23:04:48.592Z,15.79
2023-05-09T23:07:15.849Z,15.39
2023-05-09T23:09:43.138Z,15.59
2023-05-09T23:12:10.725Z,15.49
2023-05-09T23:14:38.059Z,15.47
2023-05-09T23:17:05.210Z,15.43
2023-05-09T23:19:32.769Z,15.37
2023-05-09T23:21:59.979Z,15.07
2023-05-09T23:24:27.228Z,15.26
2023-05-09T23:26:54.488Z,15.28
2023-05-09T23:29:21.844Z,15.18
2023-05-09T23:31:49.389Z,15.21
2023-05-09T23:34:17.524Z,14.95
2023-05-09T23:36:44.736Z,15.06
2023-05-09T23:39:12.133Z,15.19
2023-05-09T23:41:39.469Z,15.14
2023-05-09T23:44:07.592Z,14.88
2023-05-09T23:46:35.055Z,15.15
2023-05-09T23:49:02.233Z,15.16
2023-05-09T23:51:29.404Z,14.82
2023-05-09T23:53:56.960Z,14.96
2023-05-09T23:56:25.262Z,15.02
2023-05-09T23:58:52.502Z,14.68
